Latest Weather Observations for Mount Crawford

IDS60801

Issued at 6:31 pm CST Friday 31 July 2015 (issued every 30 minutes, with the page automatically refreshed every 10 minutes)

About weather observations | Map of weather stations | Latest weather observations for SA | Other Formats
Station Details ID: 023878 Name: MT CRAWFORD AWS Lat: -34.73 Lon: 138.93 Height: 525.0 m
Data from the previous 72 hours. | See also: Recent months at Mount Crawford
Date/Time
CST
Temp
°C
App
Temp
°C
Dew
Point
Rel
Hum
%
Delta-T
°C
Wind Press
QNH
hPa
Press
MSL
hPa
Rain
since 9 am
mm
Dir
 
Spd
km/h
Gust
km/h
Spd
kts
Gust
kts
31/06:30pm 10.2 7.0 8.5 89 0.9 WNW 15 20 8 11 1014.3 1014.7 0.0
31/06:00pm 10.3 7.1 8.6 89 0.9 WNW 15 19 8 10 1014.3 1014.7 0.0
31/05:30pm 10.7 7.2 8.6 87 1.1 WNW 17 24 9 13 1014.4 1014.8 0.0
31/05:00pm 11.2 7.2 8.9 86 1.2 WNW 20 28 11 15 1014.7 1015.2 0.0
31/04:30pm 11.4 7.6 9.1 86 1.2 WNW 19 26 10 14 1014.6 1015.1 0.0
31/04:00pm 11.4 7.0 9.0 85 1.2 WNW 22 32 12 17 1014.9 1015.4 0.0
31/03:30pm 11.3 6.9 9.0 86 1.2 NW 22 30 12 16 1015.3 1015.7 0.0
31/03:00pm 11.5 6.7 8.9 84 1.3 NW 24 35 13 19 1015.2 1015.6 0.0
31/02:30pm 10.9 6.0 8.5 85 1.2 WNW 24 37 13 20 1015.7 1016.1 0.0
31/02:00pm 10.6 5.6 8.0 84 1.3 NW 24 43 13 23 1015.8 1016.2 0.0
31/01:30pm 10.6 5.2 7.8 83 1.4 NW 26 35 14 19 1016.1 1016.6 0.0
31/01:00pm 9.9 4.3 7.3 84 1.3 NW 26 37 14 20 1016.9 1017.4 0.0
31/12:30pm 9.6 4.2 6.5 81 1.5 NW 24 39 13 21 1017.8 1018.3 0.0
31/12:00pm 9.4 3.9 5.9 79 1.7 NNW 24 35 13 19 1018.4 1018.9 0.0
31/11:30am 8.7 4.5 7.3 91 0.7 NW 19 26 10 14 1019.0 1019.5 0.0
31/11:00am 8.5 4.2 7.0 90 0.7 NNW 19 28 10 15 1019.4 1019.9 0.0
31/10:30am 8.0 3.5 6.9 93 0.5 N 20 30 11 16 1019.7 1020.2 0.0
31/10:00am 7.6 2.9 5.9 89 0.8 N 20 26 11 14 1020.1 1020.6 0.0
31/09:30am 7.3 4.3 6.1 92 0.6 N 11 17 6 9 1020.3 1020.8 0.0
31/09:00am 6.3 3.9 5.4 94 0.4 NE 7 13 4 7 1020.5 1021.0 0.4
31/08:30am 5.6 2.7 4.6 93 0.4 NE 9 13 5 7 1020.6 1021.1 0.4
31/08:00am 5.4 2.5 4.4 93 0.4 ENE 9 13 5 7 1020.6 1021.1 0.4
31/07:30am 5.4 2.4 4.2 92 0.5 NNE 9 13 5 7 1020.7 1021.2 0.4
31/07:00am 4.6 1.1 3.7 94 0.4 NE 11 17 6 9 1020.4 1020.9 0.4
31/06:30am 4.8 1.0 3.8 93 0.4 NE 13 20 7 11 1020.3 1020.8 0.4
31/06:00am 4.5 0.6 3.6 94 0.4 ENE 13 17 7 9 1020.2 1020.7 0.4
31/05:30am 4.8 1.6 3.3 90 0.6 ENE 9 13 5 7 1020.0 1020.5 0.4
31/05:00am 5.0 1.8 3.3 89 0.7 ENE 9 13 5 7 1019.8 1020.3 0.4
31/04:30am 5.0 2.3 3.5 90 0.6 NE 7 9 4 5 1020.0 1020.5 0.4
31/04:00am 5.1 3.3 3.6 90 0.6 SE 2 6 1 3 1020.2 1020.7 0.4
31/03:30am 5.6 2.5 3.4 86 0.9 S 9 13 5 7 1020.3 1020.8 0.4
31/03:00am 5.3 2.7 4.3 93 0.4 SSE 7 11 4 6 1020.5 1021.0 0.4
31/02:30am 5.6 2.7 4.7 94 0.4 SSE 9 11 5 6 1020.8 1021.3 0.4
31/02:00am 5.4 1.7 4.2 92 0.5 S 13 17 7 9 1020.6 1021.1 0.4
31/01:30am 5.7 1.6 4.5 92 0.5 S 15 17 8 9 1020.9 1021.5 0.4
31/01:00am 5.8 2.2 5.1 95 0.3 SSE 13 17 7 9 1021.0 1021.6 0.4
31/12:30am 6.1 2.6 5.5 96 0.3 SSE 13 17 7 9 1021.2 1021.7 0.4
31/12:00am 6.3 2.2 6.2 99 0.0 SSE 17 22 9 12 1020.9 1021.5 0.4
 
Date/Time
CST
Temp
°C
App
Temp
°C
Dew
Point
Rel
Hum
%
Delta-T
°C
Wind Press
QNH
hPa
Press
MSL
hPa
Rain
since 9 am
mm
Dir
 
Spd
km/h
Gust
km/h
Spd
kts
Gust
kts
30/11:30pm 6.4 2.3 6.3 99 0.0 SSE 17 22 9 12 1020.9 1021.5 0.4
30/11:00pm 6.8 2.3 6.8 100 0.0 S 20 26 11 14 1021.3 1021.8 0.4
30/10:30pm 7.1 3.2 7.1 100 0.0 S 17 20 9 11 1021.4 1021.9 0.4
30/10:00pm 7.6 3.2 7.6 100 0.0 S 20 28 11 15 1020.9 1021.5 0.4
30/09:30pm 7.8 3.7 7.8 100 0.0 SSW 19 24 10 13 1020.9 1021.5 0.4
30/09:00pm 7.9 3.2 7.9 100 0.0 SSW 22 30 12 16 1020.5 1021.0 0.4
30/08:30pm 8.2 4.2 8.2 100 0.0 SSW 19 28 10 15 1020.1 1020.6 0.4
30/08:00pm 8.8 5.3 8.8 100 0.0 WSW 17 22 9 12 1019.8 1020.3 0.2
30/07:30pm 9.3 5.9 9.3 100 0.0 WSW 17 24 9 13 1019.3 1019.7 0.2
30/07:00pm 9.4 5.5 9.4 100 0.0 W 20 32 11 17 1018.9 1019.4 0.0
30/06:30pm 9.4 5.5 9.4 100 0.0 W 20 33 11 18 1018.6 1019.1 0.0
30/06:00pm 9.2 5.2 9.2 100 0.0 W 20 30 11 16 1018.4 1018.9 0.0
30/05:30pm 8.9 5.1 8.9 100 0.0 W 19 32 10 17 1018.2 1018.7 0.0
30/05:00pm 8.7 3.9 8.7 100 0.0 W 24 35 13 19 1017.8 1018.3 0.0
30/04:30pm 8.5 2.8 8.5 100 0.0 WNW 28 41 15 22 1017.1 1017.5 0.0
30/04:00pm 8.6 1.9 8.0 96 0.3 WNW 33 56 18 30 1016.5 1017.0 0.0
30/03:30pm 9.4 1.6 6.8 84 1.3 W 37 57 20 31 1016.2 1016.7 0.0
30/03:00pm 10.2 0.7 5.0 70 2.4 W 44 78 24 42 1016.1 1016.6 0.0
30/02:30pm 10.8 1.2 3.4 60 3.3 WNW 43 67 23 36 1015.8 1016.2 0.0
30/02:00pm 10.7 0.4 2.8 58 3.5 WNW 46 67 25 36 1015.5 1015.9 0.0
30/01:30pm 10.4 0.6 2.3 57 3.6 WNW 43 63 23 34 1015.9 1016.3 0.0
30/01:00pm 10.6 1.1 1.7 54 3.9 WNW 41 61 22 33 1016.2 1016.7 0.0
30/12:30pm 10.8 1.7 1.6 53 4.0 WNW 39 61 21 33 1016.5 1017.0 0.0
30/12:00pm 10.4 0.9 1.5 54 3.8 WNW 41 61 22 33 1017.3 1017.7 0.0
30/11:30am 10.6 1.5 1.7 54 3.9 NW 39 61 21 33 1017.4 1017.8 0.0
30/11:00am 10.4 0.8 1.2 53 3.9 NW 41 67 22 36 1017.9 1018.4 0.0
30/10:30am 10.2 2.1 1.3 54 3.8 NW 33 57 18 31 1017.5 1017.9 0.0
30/10:00am 9.6 1.1 0.8 54 3.7 NW 35 56 19 30 1017.9 1018.4 0.0
30/09:30am 9.5 1.0 0.7 54 3.7 NW 35 57 19 31 1018.0 1018.5 0.0
30/09:01am 8.9 1.2 -0.1 53 3.7 NW 30 50 16 27 1018.3 1018.8 0.0
30/09:00am 8.8 1.2 0.3 55 3.5 NW 30 44 16 24 1018.4 1018.9 0.2
30/08:30am 8.2 0.5 0.0 56 3.3 NNW 30 50 16 27 1018.5 1019.0 0.2
30/08:03am 7.7 0.4 0.0 58 3.1 NW 28 46 15 25 1018.8 1019.3 0.2
30/08:00am 7.6 0.3 -0.1 58 3.1 NW 28 39 15 21 1018.8 1019.3 0.2
30/07:30am 7.3 -0.8 -0.2 59 3.0 NNW 32 46 17 25 1018.4 1018.9 0.2
30/07:00am 7.1 -0.2 0.1 61 2.8 NNW 28 41 15 22 1018.4 1018.9 0.2
30/06:30am 6.8 -0.5 0.3 63 2.6 NNW 28 41 15 22 1018.3 1018.8 0.2
30/06:00am 7.0 -1.0 0.2 62 2.7 NNW 32 50 17 27 1018.5 1019.0 0.2
30/05:52am 7.1 -0.9 0.3 62 2.8 NNW 32 50 17 27 1018.6 1019.1 0.2
30/05:30am 7.0 0.5 0.2 62 2.7 NW 24 33 13 18 1019.7 1020.2 0.2
30/05:00am 7.6 1.4 -0.6 56 3.3 NW 22 33 12 18 1019.9 1020.4 0.2
30/04:30am 7.7 1.4 -1.0 54 3.4 NW 22 33 12 18 1020.2 1020.7 0.2
30/04:00am 7.8 1.2 -0.7 55 3.4 NW 24 39 13 21 1020.3 1020.8 0.2
30/03:30am 7.9 1.2 -1.1 53 3.5 NW 24 37 13 20 1020.5 1021.0 0.2
30/03:00am 7.7 1.0 -1.0 54 3.4 NW 24 37 13 20 1021.0 1021.6 0.2
30/02:30am 7.9 1.2 -1.3 52 3.6 NW 24 39 13 21 1021.5 1022.0 0.2
30/02:00am 7.9 1.2 -1.3 52 3.6 WNW 24 37 13 20 1021.8 1022.3 0.2
30/01:30am 7.8 1.5 -0.7 55 3.4 WNW 22 32 12 17 1022.0 1022.5 0.2
30/01:00am 8.0 1.4 -0.7 54 3.5 WNW 24 37 13 20 1022.1 1022.6 0.2
30/12:30am 7.7 1.6 0.2 59 3.0 NW 22 35 12 19 1022.3 1022.8 0.2
30/12:00am 7.5 1.0 0.3 60 2.9 NW 24 33 13 18 1022.6 1023.2 0.2
 
Date/Time
CST
Temp
°C
App
Temp
°C
Dew
Point
Rel
Hum
%
Delta-T
°C
Wind Press
QNH
hPa
Press
MSL
hPa
Rain
since 9 am
mm
Dir
 
Spd
km/h
Gust
km/h
Spd
kts
Gust
kts
29/11:30pm 7.5 1.1 0.7 62 2.8 NW 24 39 13 21 1022.8 1023.4 0.2
29/11:00pm 7.7 0.8 0.4 60 3.0 NW 26 35 14 19 1022.9 1023.5 0.2
29/10:30pm 7.5 0.4 1.4 65 2.5 NNW 28 39 15 21 1023.2 1023.7 0.2
29/10:00pm 7.4 0.4 2.1 69 2.3 NNW 28 37 15 20 1023.5 1024.0 0.2
29/09:30pm 7.5 0.5 2.2 69 2.2 NNW 28 37 15 20 1023.7 1024.2 0.2
29/09:00pm 7.8 0.9 2.3 68 2.3 NNW 28 37 15 20 1024.2 1024.8 0.2
29/08:30pm 8.1 0.8 2.6 68 2.4 N 30 41 16 22 1024.2 1024.8 0.2
29/08:00pm 8.4 1.2 3.1 69 2.3 NNW 30 44 16 24 1024.3 1024.9 0.2
29/07:30pm 8.4 1.6 3.1 69 2.3 N 28 41 15 22 1024.2 1024.8 0.2
29/07:00pm 8.1 1.3 3.0 70 2.2 N 28 35 15 19 1024.5 1025.1 0.2
29/06:30pm 8.0 1.5 2.9 70 2.2 N 26 32 14 17 1024.4 1025.0 0.2
29/06:00pm 7.6 2.3 3.1 73 2.0 N 20 30 11 16 1024.3 1024.9 0.2
29/05:30pm 7.7 2.7 3.4 74 1.9 N 19 24 10 13 1024.5 1025.1 0.2
29/05:00pm 7.9 3.3 3.8 75 1.8 N 17 22 9 12 1024.6 1025.2 0.2
29/04:30pm 8.3 3.1 3.8 73 2.0 N 20 30 11 16 1024.7 1025.3 0.2
29/04:00pm 9.1 3.4 3.1 66 2.7 NW 22 39 12 21 1025.2 1025.7 0.2
29/03:30pm 9.1 4.0 2.9 65 2.7 NW 19 32 10 17 1025.2 1025.7 0.2
29/03:00pm 9.3 3.2 2.9 64 2.8 NW 24 35 13 19 1025.3 1025.8 0.2
29/02:30pm 8.8 3.6 3.4 69 2.4 NNW 20 28 11 15 1025.5 1026.0 0.2
29/02:00pm 8.2 2.2 3.5 72 2.1 NW 24 39 13 21 1026.3 1026.9 0.2
29/01:30pm 7.6 1.6 3.5 75 1.8 NW 24 33 13 18 1026.4 1027.0 0.2
29/01:00pm 7.4 1.7 2.9 73 2.0 NW 22 37 12 20 1027.0 1027.6 0.2
29/12:30pm 7.7 2.4 3.2 73 2.0 NNW 20 32 11 17 1027.8 1028.4 0.2
29/12:00pm 7.6 2.5 2.9 72 2.0 NNW 19 28 10 15 1028.3 1028.9 0.2
29/11:30am 7.8 2.6 3.5 74 1.9 NNW 20 28 11 15 1029.0 1029.7 0.0
29/11:00am 7.2 1.6 3.3 76 1.7 NW 22 30 12 16 1029.8 1030.4 0.0
29/10:30am 7.3 2.1 2.6 72 2.0 NNW 19 26 10 14 1029.7 1030.3 0.0
29/10:00am 6.8 1.9 2.3 73 1.9 NNW 17 30 9 16 1030.1 1030.7 0.0
29/09:30am 6.4 0.9 1.9 73 1.9 NNW 20 33 11 18 1030.2 1030.8 0.0
29/09:00am 6.2 -0.5 1.3 71 2.0 N 26 37 14 20 1029.6 1030.2 0.0
29/08:30am 5.8 -1.3 1.5 74 1.8 N 28 37 15 20 1030.4 1031.0 0.0
29/08:00am 5.9 -0.4 1.4 73 1.9 N 24 35 13 19 1030.7 1031.4 0.0
29/07:30am 6.5 -0.2 1.2 69 2.2 N 26 41 14 22 1030.0 1030.6 0.0
29/07:00am 6.5 0.5 1.2 69 2.2 N 22 33 12 18 1029.4 1030.0 0.0
29/06:30am 6.3 0.4 1.4 71 2.0 NNE 22 30 12 16 1029.3 1029.9 0.0
29/06:00am 6.6 0.3 1.5 70 2.1 N 24 37 13 20 1030.0 1030.6 0.0
29/05:30am 6.4 0.1 1.5 71 2.0 N 24 33 13 18 1029.9 1030.5 0.0
29/05:00am 6.3 0.0 1.6 72 2.0 N 24 35 13 19 1029.5 1030.1 0.0
29/04:30am 6.1 0.6 1.8 74 1.8 N 20 28 11 15 1029.9 1030.5 0.0
29/04:00am 6.2 -0.4 1.9 74 1.8 NNE 26 33 14 18 1029.5 1030.1 0.0
29/03:30am 6.0 0.5 1.7 74 1.8 NNE 20 26 11 14 1029.9 1030.5 0.0
29/03:00am 5.9 -0.3 2.0 76 1.6 NNE 24 30 13 16 1029.8 1030.4 0.0
29/02:30am 5.7 0.3 2.2 78 1.5 NNE 20 26 11 14 1030.3 1030.9 0.0
29/02:00am 6.1 0.7 2.2 76 1.6 NNE 20 24 11 13 1030.5 1031.1 0.0
29/01:30am 6.3 0.5 2.2 75 1.7 NNE 22 28 12 15 1031.0 1031.7 0.0
29/01:00am 5.8 0.0 2.1 77 1.5 NNE 22 28 12 15 1030.9 1031.6 0.0
29/12:30am 6.0 0.6 2.3 77 1.5 NNE 20 22 11 12 1031.4 1032.0 0.0
29/12:00am 6.2 1.0 2.7 78 1.5 NE 19 20 10 11 1031.6 1032.2 0.0
 
Date/Time
CST
Temp
°C
App
Temp
°C
Dew
Point
Rel
Hum
%
Delta-T
°C
Wind Press
QNH
hPa
Press
MSL
hPa
Rain
since 9 am
mm
Dir
 
Spd
km/h
Gust
km/h
Spd
kts
Gust
kts
28/11:30pm 6.2 1.6 3.5 83 1.2 NNE 17 20 9 11 1032.1 1032.7 0.0
28/11:00pm 6.2 1.8 5.0 92 0.5 NE 17 22 9 12 1031.9 1032.5 0.0
28/10:30pm 6.5 3.2 6.2 98 0.1 ENE 13 17 7 9 1032.6 1033.3 0.0
28/10:00pm 6.6 3.3 6.3 98 0.1 ENE 13 17 7 9 1033.0 1033.7 0.0
28/09:30pm 6.6 3.3 6.2 97 0.2 ENE 13 17 7 9 1032.9 1033.6 0.0
28/09:00pm 6.9 3.6 6.2 95 0.3 E 13 15 7 8 1033.4 1034.0 0.0
28/08:30pm 6.9 3.5 5.8 93 0.5 ESE 13 15 7 8 1033.4 1034.0 0.0
28/08:00pm 7.0 3.6 5.8 92 0.6 ESE 13 17 7 9 1033.4 1034.0 0.0
28/07:30pm 7.1 4.4 5.4 89 0.8 SE 9 13 5 7 1033.4 1034.0 0.0
28/07:00pm 7.1 4.9 5.1 87 0.9 ESE 6 11 3 6 1033.0 1033.7 0.0

Other Formats:

Comma delimited format used in spreadsheet applications
http://www.bom.gov.au/fwo/IDS60801/IDS60801.94678.axf

JavaScript Object Notation format (JSON) in row-major order
http://www.bom.gov.au/fwo/IDS60801/IDS60801.94678.json